sensor_id;sensor_type;location;lat;lon;timestamp;P1;durP1;ratioP1;P2;durP2;ratioP2
545;SDS011;259;53.304;9.816;2022-09-29T00:00:37;2.03;;;1.93;;
545;SDS011;259;53.304;9.816;2022-09-29T00:03:03;1.93;;;1.83;;
545;SDS011;259;53.304;9.816;2022-09-29T00:05:29;1.53;;;1.43;;
545;SDS011;259;53.304;9.816;2022-09-29T00:07:55;1.20;;;1.20;;
545;SDS011;259;53.304;9.816;2022-09-29T00:10:20;1.53;;;1.53;;
545;SDS011;259;53.304;9.816;2022-09-29T00:12:46;1.50;;;1.40;;
545;SDS011;259;53.304;9.816;2022-09-29T00:15:12;1.80;;;1.70;;
545;SDS011;259;53.304;9.816;2022-09-29T00:17:37;1.33;;;1.23;;
545;SDS011;259;53.304;9.816;2022-09-29T00:20:03;1.60;;;1.50;;
545;SDS011;259;53.304;9.816;2022-09-29T00:22:29;1.43;;;1.33;;
545;SDS011;259;53.304;9.816;2022-09-29T00:24:55;1.57;;;1.47;;
545;SDS011;259;53.304;9.816;2022-09-29T00:27:20;1.57;;;1.47;;
545;SDS011;259;53.304;9.816;2022-09-29T00:29:46;1.80;;;1.70;;
545;SDS011;259;53.304;9.816;2022-09-29T00:32:11;1.80;;;1.70;;
545;SDS011;259;53.304;9.816;2022-09-29T00:34:37;1.50;;;1.40;;
545;SDS011;259;53.304;9.816;2022-09-29T00:37:03;1.40;;;1.30;;
545;SDS011;259;53.304;9.816;2022-09-29T00:39:29;1.60;;;1.50;;
545;SDS011;259;53.304;9.816;2022-09-29T00:41:54;2.23;;;1.70;;
545;SDS011;259;53.304;9.816;2022-09-29T00:51:49;1.57;;;1.47;;
545;SDS011;259;53.304;9.816;2022-09-29T00:54:18;1.50;;;1.47;;
545;SDS011;259;53.304;9.816;2022-09-29T00:56:44;1.40;;;1.30;;
545;SDS011;259;53.304;9.816;2022-09-29T00:59:13;1.77;;;1.60;;
545;SDS011;259;53.304;9.816;2022-09-29T01:01:47;1.60;;;1.50;;
545;SDS011;259;53.304;9.816;2022-09-29T01:04:14;1.50;;;1.40;;
545;SDS011;259;53.304;9.816;2022-09-29T01:06:44;1.77;;;1.67;;
545;SDS011;259;53.304;9.816;2022-09-29T01:09:18;1.77;;;1.67;;
545;SDS011;259;53.304;9.816;2022-09-29T01:11:46;1.43;;;1.40;;
545;SDS011;259;53.304;9.816;2022-09-29T01:14:12;1.53;;;1.43;;
545;SDS011;259;53.304;9.816;2022-09-29T01:16:38;1.30;;;1.30;;
545;SDS011;259;53.304;9.816;2022-09-29T01:19:07;1.30;;;1.30;;
545;SDS011;259;53.304;9.816;2022-09-29T01:40:28;1.70;;;1.60;;
545;SDS011;259;53.304;9.816;2022-09-29T01:43:17;1.40;;;1.30;;
545;SDS011;259;53.304;9.816;2022-09-29T01:45:50;1.33;;;1.23;;
545;SDS011;259;53.304;9.816;2022-09-29T01:48:24;1.77;;;1.67;;
545;SDS011;259;53.304;9.816;2022-09-29T01:50:55;1.27;;;1.27;;
545;SDS011;259;53.304;9.816;2022-09-29T01:53:25;1.60;;;1.50;;
545;SDS011;259;53.304;9.816;2022-09-29T01:55:59;1.80;;;1.70;;
545;SDS011;259;53.304;9.816;2022-09-29T01:58:37;1.50;;;1.40;;
545;SDS011;259;53.304;9.816;2022-09-29T02:01:13;1.17;;;1.07;;
545;SDS011;259;53.304;9.816;2022-09-29T02:03:45;1.40;;;1.30;;
545;SDS011;259;53.304;9.816;2022-09-29T02:06:25;1.57;;;1.47;;
545;SDS011;259;53.304;9.816;2022-09-29T02:08:55;2.00;;;1.80;;
545;SDS011;259;53.304;9.816;2022-09-29T02:11:24;1.57;;;1.47;;
545;SDS011;259;53.304;9.816;2022-09-29T02:16:51;1.70;;;1.60;;
545;SDS011;259;53.304;9.816;2022-09-29T02:19:28;1.57;;;1.50;;
545;SDS011;259;53.304;9.816;2022-09-29T02:21:58;1.53;;;1.43;;
545;SDS011;259;53.304;9.816;2022-09-29T02:24:24;1.57;;;1.33;;
545;SDS011;259;53.304;9.816;2022-09-29T02:26:50;1.40;;;1.30;;
545;SDS011;259;53.304;9.816;2022-09-29T02:29:16;1.47;;;1.37;;
545;SDS011;259;53.304;9.816;2022-09-29T02:31:42;1.37;;;1.27;;
545;SDS011;259;53.304;9.816;2022-09-29T02:34:10;1.50;;;1.40;;
545;SDS011;259;53.304;9.816;2022-09-29T02:39:56;1.50;;;1.40;;
545;SDS011;259;53.304;9.816;2022-09-29T02:42:39;1.47;;;1.23;;
545;SDS011;259;53.304;9.816;2022-09-29T02:53:10;1.70;;;1.60;;
545;SDS011;259;53.304;9.816;2022-09-29T03:01:06;1.60;;;1.50;;
545;SDS011;259;53.304;9.816;2022-09-29T03:03:32;1.40;;;1.30;;
545;SDS011;259;53.304;9.816;2022-09-29T03:05:58;1.40;;;1.30;;
545;SDS011;259;53.304;9.816;2022-09-29T03:08:24;1.50;;;1.40;;
545;SDS011;259;53.304;9.816;2022-09-29T03:10:50;1.40;;;1.40;;
545;SDS011;259;53.304;9.816;2022-09-29T03:13:15;1.40;;;1.40;;
545;SDS011;259;53.304;9.816;2022-09-29T03:15:41;1.60;;;1.50;;
545;SDS011;259;53.304;9.816;2022-09-29T03:18:07;1.43;;;1.33;;
545;SDS011;259;53.304;9.816;2022-09-29T03:20:33;1.63;;;1.53;;
545;SDS011;259;53.304;9.816;2022-09-29T03:22:58;1.47;;;1.40;;
545;SDS011;259;53.304;9.816;2022-09-29T03:25:24;1.60;;;1.50;;
545;SDS011;259;53.304;9.816;2022-09-29T03:27:50;1.50;;;1.40;;
545;SDS011;259;53.304;9.816;2022-09-29T03:30:16;1.70;;;1.60;;
545;SDS011;259;53.304;9.816;2022-09-29T03:32:42;1.00;;;1.00;;
545;SDS011;259;53.304;9.816;2022-09-29T03:35:09;1.77;;;1.67;;
545;SDS011;259;53.304;9.816;2022-09-29T03:37:35;1.50;;;1.40;;
545;SDS011;259;53.304;9.816;2022-09-29T03:40:01;1.70;;;1.60;;
545;SDS011;259;53.304;9.816;2022-09-29T03:42:27;1.63;;;1.53;;
545;SDS011;259;53.304;9.816;2022-09-29T03:44:53;1.67;;;1.57;;
545;SDS011;259;53.304;9.816;2022-09-29T03:47:19;1.37;;;1.27;;
545;SDS011;259;53.304;9.816;2022-09-29T03:49:44;2.03;;;1.93;;
545;SDS011;259;53.304;9.816;2022-09-29T03:52:10;1.50;;;1.40;;
545;SDS011;259;53.304;9.816;2022-09-29T03:54:35;1.50;;;1.40;;
545;SDS011;259;53.304;9.816;2022-09-29T03:57:01;1.50;;;1.40;;
545;SDS011;259;53.304;9.816;2022-09-29T03:59:27;1.60;;;1.50;;
545;SDS011;259;53.304;9.816;2022-09-29T04:01:52;1.70;;;1.60;;
545;SDS011;259;53.304;9.816;2022-09-29T04:04:18;1.50;;;1.40;;
545;SDS011;259;53.304;9.816;2022-09-29T04:06:43;1.60;;;1.50;;
545;SDS011;259;53.304;9.816;2022-09-29T04:09:09;1.90;;;1.80;;
545;SDS011;259;53.304;9.816;2022-09-29T04:11:35;1.93;;;1.60;;
545;SDS011;259;53.304;9.816;2022-09-29T04:14:00;1.60;;;1.50;;
545;SDS011;259;53.304;9.816;2022-09-29T04:16:26;1.80;;;1.70;;
545;SDS011;259;53.304;9.816;2022-09-29T04:18:52;1.40;;;1.30;;
545;SDS011;259;53.304;9.816;2022-09-29T04:21:17;1.30;;;1.30;;
545;SDS011;259;53.304;9.816;2022-09-29T04:23:43;1.63;;;1.53;;
545;SDS011;259;53.304;9.816;2022-09-29T04:26:09;1.77;;;1.67;;
545;SDS011;259;53.304;9.816;2022-09-29T04:28:35;1.77;;;1.67;;
545;SDS011;259;53.304;9.816;2022-09-29T04:31:01;1.67;;;1.57;;
545;SDS011;259;53.304;9.816;2022-09-29T04:33:27;1.90;;;1.80;;
545;SDS011;259;53.304;9.816;2022-09-29T04:35:54;1.77;;;1.67;;
545;SDS011;259;53.304;9.816;2022-09-29T04:38:20;1.20;;;1.20;;
545;SDS011;259;53.304;9.816;2022-09-29T04:40:46;1.70;;;1.60;;
545;SDS011;259;53.304;9.816;2022-09-29T04:43:13;1.67;;;1.57;;
545;SDS011;259;53.304;9.816;2022-09-29T04:45:38;1.80;;;1.70;;
545;SDS011;259;53.304;9.816;2022-09-29T04:48:04;1.97;;;1.87;;
545;SDS011;259;53.304;9.816;2022-09-29T04:50:30;2.20;;;1.83;;
545;SDS011;259;53.304;9.816;2022-09-29T04:52:55;1.83;;;1.73;;
545;SDS011;259;53.304;9.816;2022-09-29T04:55:21;2.43;;;2.23;;
545;SDS011;259;53.304;9.816;2022-09-29T04:57:47;1.60;;;1.50;;
545;SDS011;259;53.304;9.816;2022-09-29T05:00:13;1.80;;;1.70;;
545;SDS011;259;53.304;9.816;2022-09-29T05:02:39;1.77;;;1.67;;
545;SDS011;259;53.304;9.816;2022-09-29T05:05:05;1.70;;;1.60;;
545;SDS011;259;53.304;9.816;2022-09-29T05:07:35;2.53;;;2.33;;
545;SDS011;259;53.304;9.816;2022-09-29T05:10:01;1.93;;;1.83;;
545;SDS011;259;53.304;9.816;2022-09-29T05:12:28;2.07;;;1.93;;
545;SDS011;259;53.304;9.816;2022-09-29T05:17:24;2.30;;;2.10;;
545;SDS011;259;53.304;9.816;2022-09-29T05:19:50;2.27;;;2.17;;
545;SDS011;259;53.304;9.816;2022-09-29T05:22:15;1.70;;;1.63;;
545;SDS011;259;53.304;9.816;2022-09-29T05:24:44;2.30;;;2.20;;
545;SDS011;259;53.304;9.816;2022-09-29T05:27:09;2.10;;;2.00;;
545;SDS011;259;53.304;9.816;2022-09-29T05:29:35;1.80;;;1.70;;
545;SDS011;259;53.304;9.816;2022-09-29T05:32:01;1.90;;;1.80;;
545;SDS011;259;53.304;9.816;2022-09-29T05:34:27;1.90;;;1.80;;
545;SDS011;259;53.304;9.816;2022-09-29T05:36:52;1.80;;;1.70;;
545;SDS011;259;53.304;9.816;2022-09-29T05:39:18;1.60;;;1.50;;
545;SDS011;259;53.304;9.816;2022-09-29T05:41:44;1.70;;;1.60;;
545;SDS011;259;53.304;9.816;2022-09-29T05:44:10;1.80;;;1.70;;
545;SDS011;259;53.304;9.816;2022-09-29T05:46:35;1.90;;;1.80;;
545;SDS011;259;53.304;9.816;2022-09-29T05:49:01;1.83;;;1.73;;
545;SDS011;259;53.304;9.816;2022-09-29T05:51:27;2.03;;;1.93;;
545;SDS011;259;53.304;9.816;2022-09-29T05:53:52;2.00;;;1.90;;
545;SDS011;259;53.304;9.816;2022-09-29T05:56:19;2.30;;;2.20;;
545;SDS011;259;53.304;9.816;2022-09-29T05:58:51;2.57;;;2.37;;
545;SDS011;259;53.304;9.816;2022-09-29T06:01:18;1.90;;;1.80;;
545;SDS011;259;53.304;9.816;2022-09-29T06:03:46;1.87;;;1.77;;
545;SDS011;259;53.304;9.816;2022-09-29T06:06:14;2.20;;;2.10;;
545;SDS011;259;53.304;9.816;2022-09-29T06:08:41;1.90;;;1.80;;
545;SDS011;259;53.304;9.816;2022-09-29T06:11:11;2.23;;;2.13;;
545;SDS011;259;53.304;9.816;2022-09-29T06:13:45;1.70;;;1.60;;
545;SDS011;259;53.304;9.816;2022-09-29T06:16:12;2.13;;;2.03;;
545;SDS011;259;53.304;9.816;2022-09-29T06:18:39;2.50;;;2.30;;
545;SDS011;259;53.304;9.816;2022-09-29T06:21:15;2.37;;;2.27;;
545;SDS011;259;53.304;9.816;2022-09-29T06:23:42;1.70;;;1.60;;
545;SDS011;259;53.304;9.816;2022-09-29T06:26:09;1.93;;;1.83;;
545;SDS011;259;53.304;9.816;2022-09-29T06:28:36;2.10;;;2.00;;
545;SDS011;259;53.304;9.816;2022-09-29T06:31:03;2.07;;;1.97;;
545;SDS011;259;53.304;9.816;2022-09-29T06:33:35;2.10;;;2.00;;
545;SDS011;259;53.304;9.816;2022-09-29T06:36:06;1.93;;;1.83;;
545;SDS011;259;53.304;9.816;2022-09-29T06:38:53;2.00;;;1.90;;
545;SDS011;259;53.304;9.816;2022-09-29T06:41:19;2.17;;;2.07;;
545;SDS011;259;53.304;9.816;2022-09-29T06:43:45;1.87;;;1.77;;
545;SDS011;259;53.304;9.816;2022-09-29T06:46:11;1.70;;;1.60;;
545;SDS011;259;53.304;9.816;2022-09-29T06:48:37;2.20;;;2.00;;
545;SDS011;259;53.304;9.816;2022-09-29T06:51:05;1.70;;;1.60;;
545;SDS011;259;53.304;9.816;2022-09-29T06:53:32;1.67;;;1.57;;
545;SDS011;259;53.304;9.816;2022-09-29T06:55:58;2.10;;;2.00;;
545;SDS011;259;53.304;9.816;2022-09-29T06:58:27;1.60;;;1.50;;
545;SDS011;259;53.304;9.816;2022-09-29T07:00:53;2.23;;;2.13;;
545;SDS011;259;53.304;9.816;2022-09-29T07:03:19;2.13;;;2.03;;
545;SDS011;259;53.304;9.816;2022-09-29T07:05:45;2.07;;;1.97;;
545;SDS011;259;53.304;9.816;2022-09-29T07:08:11;2.27;;;2.10;;
545;SDS011;259;53.304;9.816;2022-09-29T07:10:36;1.80;;;1.70;;
545;SDS011;259;53.304;9.816;2022-09-29T07:13:02;2.00;;;1.90;;
545;SDS011;259;53.304;9.816;2022-09-29T07:15:28;1.90;;;1.80;;
545;SDS011;259;53.304;9.816;2022-09-29T07:18:00;1.60;;;1.50;;
545;SDS011;259;53.304;9.816;2022-09-29T07:20:26;1.83;;;1.73;;
545;SDS011;259;53.304;9.816;2022-09-29T07:22:53;1.80;;;1.70;;
545;SDS011;259;53.304;9.816;2022-09-29T07:25:19;2.07;;;1.60;;
545;SDS011;259;53.304;9.816;2022-09-29T07:27:45;1.73;;;1.60;;
545;SDS011;259;53.304;9.816;2022-09-29T07:30:12;1.40;;;1.30;;
545;SDS011;259;53.304;9.816;2022-09-29T07:32:38;2.53;;;1.80;;
545;SDS011;259;53.304;9.816;2022-09-29T07:35:03;5.83;;;1.80;;
545;SDS011;259;53.304;9.816;2022-09-29T07:37:30;11.30;;;2.20;;
545;SDS011;259;53.304;9.816;2022-09-29T07:39:56;3.90;;;1.73;;
545;SDS011;259;53.304;9.816;2022-09-29T07:42:21;3.60;;;2.07;;
545;SDS011;259;53.304;9.816;2022-09-29T07:44:47;7.70;;;1.70;;
545;SDS011;259;53.304;9.816;2022-09-29T07:47:13;8.90;;;2.37;;
545;SDS011;259;53.304;9.816;2022-09-29T07:49:41;13.67;;;2.90;;
545;SDS011;259;53.304;9.816;2022-09-29T07:52:07;24.87;;;3.57;;
545;SDS011;259;53.304;9.816;2022-09-29T07:54:33;10.50;;;2.73;;
545;SDS011;259;53.304;9.816;2022-09-29T07:56:59;15.00;;;3.90;;
545;SDS011;259;53.304;9.816;2022-09-29T07:59:26;20.50;;;4.53;;
545;SDS011;259;53.304;9.816;2022-09-29T08:01:52;32.33;;;4.97;;
545;SDS011;259;53.304;9.816;2022-09-29T08:04:17;27.40;;;4.07;;
545;SDS011;259;53.304;9.816;2022-09-29T08:06:44;19.60;;;3.07;;
545;SDS011;259;53.304;9.816;2022-09-29T08:09:10;25.37;;;3.70;;
545;SDS011;259;53.304;9.816;2022-09-29T08:11:36;19.20;;;3.53;;
545;SDS011;259;53.304;9.816;2022-09-29T08:14:03;18.00;;;3.80;;
545;SDS011;259;53.304;9.816;2022-09-29T08:16:29;9.13;;;2.93;;
545;SDS011;259;53.304;9.816;2022-09-29T08:18:55;18.97;;;4.03;;
545;SDS011;259;53.304;9.816;2022-09-29T08:21:21;19.37;;;4.10;;
545;SDS011;259;53.304;9.816;2022-09-29T08:23:47;17.13;;;3.73;;
545;SDS011;259;53.304;9.816;2022-09-29T08:26:14;13.57;;;2.83;;
545;SDS011;259;53.304;9.816;2022-09-29T08:28:42;8.67;;;3.30;;
545;SDS011;259;53.304;9.816;2022-09-29T08:31:09;12.70;;;3.00;;
545;SDS011;259;53.304;9.816;2022-09-29T08:33:40;11.37;;;3.40;;
545;SDS011;259;53.304;9.816;2022-09-29T08:36:07;15.60;;;3.53;;
545;SDS011;259;53.304;9.816;2022-09-29T08:38:43;18.37;;;4.43;;
545;SDS011;259;53.304;9.816;2022-09-29T08:41:56;20.53;;;5.27;;
545;SDS011;259;53.304;9.816;2022-09-29T08:44:13;31.10;;;5.10;;
545;SDS011;259;53.304;9.816;2022-09-29T08:47:20;13.03;;;4.03;;
545;SDS011;259;53.304;9.816;2022-09-29T08:52:27;29.90;;;4.60;;
545;SDS011;259;53.304;9.816;2022-09-29T08:54:56;30.60;;;6.23;;
545;SDS011;259;53.304;9.816;2022-09-29T08:57:27;20.30;;;4.60;;
545;SDS011;259;53.304;9.816;2022-09-29T08:59:58;27.90;;;5.57;;
545;SDS011;259;53.304;9.816;2022-09-29T09:05:13;26.83;;;5.20;;
545;SDS011;259;53.304;9.816;2022-09-29T09:08:03;31.53;;;7.67;;
545;SDS011;259;53.304;9.816;2022-09-29T09:10:46;25.93;;;5.67;;
545;SDS011;259;53.304;9.816;2022-09-29T09:18:27;29.20;;;5.67;;
545;SDS011;259;53.304;9.816;2022-09-29T09:23:57;17.37;;;4.43;;
545;SDS011;259;53.304;9.816;2022-09-29T09:26:39;21.50;;;6.00;;
545;SDS011;259;53.304;9.816;2022-09-29T09:31:43;19.00;;;4.47;;
545;SDS011;259;53.304;9.816;2022-09-29T09:34:20;13.57;;;4.00;;
545;SDS011;259;53.304;9.816;2022-09-29T09:36:54;16.83;;;4.70;;
545;SDS011;259;53.304;9.816;2022-09-29T09:41:59;14.30;;;5.07;;
545;SDS011;259;53.304;9.816;2022-09-29T09:44:32;17.73;;;5.67;;
545;SDS011;259;53.304;9.816;2022-09-29T09:47:19;26.13;;;5.90;;
545;SDS011;259;53.304;9.816;2022-09-29T09:49:56;25.77;;;5.50;;
545;SDS011;259;53.304;9.816;2022-09-29T09:52:36;25.17;;;5.77;;
545;SDS011;259;53.304;9.816;2022-09-29T09:55:14;19.23;;;5.70;;
545;SDS011;259;53.304;9.816;2022-09-29T10:00:59;29.30;;;8.23;;
545;SDS011;259;53.304;9.816;2022-09-29T10:03:27;29.47;;;6.73;;
545;SDS011;259;53.304;9.816;2022-09-29T10:05:53;21.03;;;6.60;;
545;SDS011;259;53.304;9.816;2022-09-29T10:08:29;24.13;;;7.20;;
545;SDS011;259;53.304;9.816;2022-09-29T10:13:49;25.60;;;6.23;;
545;SDS011;259;53.304;9.816;2022-09-29T10:16:27;24.40;;;7.07;;
545;SDS011;259;53.304;9.816;2022-09-29T10:19:06;22.67;;;6.50;;
545;SDS011;259;53.304;9.816;2022-09-29T10:21:36;30.93;;;8.87;;
545;SDS011;259;53.304;9.816;2022-09-29T10:24:05;25.83;;;6.80;;
545;SDS011;259;53.304;9.816;2022-09-29T10:26:48;23.10;;;6.63;;
545;SDS011;259;53.304;9.816;2022-09-29T10:29:17;30.70;;;8.97;;
545;SDS011;259;53.304;9.816;2022-09-29T10:31:57;24.60;;;6.47;;
545;SDS011;259;53.304;9.816;2022-09-29T10:34:25;34.40;;;8.50;;
545;SDS011;259;53.304;9.816;2022-09-29T10:37:02;35.40;;;7.27;;
545;SDS011;259;53.304;9.816;2022-09-29T10:39:43;40.40;;;8.00;;
545;SDS011;259;53.304;9.816;2022-09-29T10:42:22;32.00;;;9.53;;
545;SDS011;259;53.304;9.816;2022-09-29T10:44:49;30.63;;;13.43;;
545;SDS011;259;53.304;9.816;2022-09-29T10:47:16;38.37;;;13.67;;
545;SDS011;259;53.304;9.816;2022-09-29T10:49:44;29.73;;;13.43;;
545;SDS011;259;53.304;9.816;2022-09-29T10:52:16;28.33;;;12.57;;
545;SDS011;259;53.304;9.816;2022-09-29T10:54:53;23.57;;;12.80;;
545;SDS011;259;53.304;9.816;2022-09-29T10:57:24;33.43;;;11.70;;
545;SDS011;259;53.304;9.816;2022-09-29T10:59:52;36.73;;;12.50;;
545;SDS011;259;53.304;9.816;2022-09-29T11:02:23;33.80;;;12.47;;
545;SDS011;259;53.304;9.816;2022-09-29T11:04:59;24.37;;;11.67;;
545;SDS011;259;53.304;9.816;2022-09-29T11:07:28;32.40;;;11.10;;
545;SDS011;259;53.304;9.816;2022-09-29T11:09:56;26.43;;;9.93;;
545;SDS011;259;53.304;9.816;2022-09-29T11:14:57;21.27;;;9.00;;
545;SDS011;259;53.304;9.816;2022-09-29T11:20:02;21.20;;;10.17;;
545;SDS011;259;53.304;9.816;2022-09-29T11:30:31;30.60;;;12.60;;
545;SDS011;259;53.304;9.816;2022-09-29T11:35:50;12.73;;;9.90;;
545;SDS011;259;53.304;9.816;2022-09-29T11:41:12;15.83;;;9.10;;
545;SDS011;259;53.304;9.816;2022-09-29T11:46:33;18.00;;;11.03;;
545;SDS011;259;53.304;9.816;2022-09-29T11:52:17;16.57;;;10.27;;
545;SDS011;259;53.304;9.816;2022-09-29T11:55:32;10.57;;;8.80;;
545;SDS011;259;53.304;9.816;2022-09-29T12:00:16;14.33;;;9.50;;
545;SDS011;259;53.304;9.816;2022-09-29T12:05:34;11.07;;;9.37;;
545;SDS011;259;53.304;9.816;2022-09-29T12:08:30;12.27;;;10.73;;
545;SDS011;259;53.304;9.816;2022-09-29T12:11:08;13.77;;;9.40;;
545;SDS011;259;53.304;9.816;2022-09-29T12:14:00;17.07;;;10.30;;
545;SDS011;259;53.304;9.816;2022-09-29T12:16:34;14.40;;;9.40;;
545;SDS011;259;53.304;9.816;2022-09-29T12:19:10;10.87;;;9.87;;
545;SDS011;259;53.304;9.816;2022-09-29T12:21:41;15.07;;;10.63;;
545;SDS011;259;53.304;9.816;2022-09-29T12:26:45;15.23;;;10.37;;
545;SDS011;259;53.304;9.816;2022-09-29T12:29:35;16.03;;;9.27;;
545;SDS011;259;53.304;9.816;2022-09-29T12:35:14;12.50;;;8.93;;
545;SDS011;259;53.304;9.816;2022-09-29T12:40:24;16.60;;;8.30;;
545;SDS011;259;53.304;9.816;2022-09-29T12:51:46;15.47;;;7.40;;
545;SDS011;259;53.304;9.816;2022-09-29T12:56:43;8.97;;;6.43;;
545;SDS011;259;53.304;9.816;2022-09-29T12:59:30;13.80;;;6.40;;
545;SDS011;259;53.304;9.816;2022-09-29T13:13:42;13.40;;;6.30;;
545;SDS011;259;53.304;9.816;2022-09-29T13:19:08;11.50;;;6.30;;
545;SDS011;259;53.304;9.816;2022-09-29T13:27:24;9.63;;;5.40;;
545;SDS011;259;53.304;9.816;2022-09-29T13:32:20;8.90;;;5.13;;
545;SDS011;259;53.304;9.816;2022-09-29T13:34:51;10.70;;;4.57;;
545;SDS011;259;53.304;9.816;2022-09-29T13:37:20;11.20;;;5.33;;
545;SDS011;259;53.304;9.816;2022-09-29T13:39:56;11.13;;;6.30;;
545;SDS011;259;53.304;9.816;2022-09-29T13:42:41;20.03;;;7.13;;
545;SDS011;259;53.304;9.816;2022-09-29T13:47:55;8.80;;;6.90;;
545;SDS011;259;53.304;9.816;2022-09-29T13:58:25;8.00;;;5.90;;
545;SDS011;259;53.304;9.816;2022-09-29T14:00:55;11.93;;;5.50;;
545;SDS011;259;53.304;9.816;2022-09-29T14:03:39;8.20;;;5.10;;
545;SDS011;259;53.304;9.816;2022-09-29T14:06:19;6.30;;;5.37;;
545;SDS011;259;53.304;9.816;2022-09-29T14:08:51;6.67;;;4.30;;
545;SDS011;259;53.304;9.816;2022-09-29T14:11:34;7.40;;;5.20;;
545;SDS011;259;53.304;9.816;2022-09-29T14:14:08;6.43;;;5.00;;
545;SDS011;259;53.304;9.816;2022-09-29T14:19:07;5.47;;;4.97;;
545;SDS011;259;53.304;9.816;2022-09-29T14:21:54;6.57;;;4.20;;
545;SDS011;259;53.304;9.816;2022-09-29T14:29:52;6.43;;;4.30;;
545;SDS011;259;53.304;9.816;2022-09-29T14:37:47;4.37;;;3.97;;
545;SDS011;259;53.304;9.816;2022-09-29T14:40:21;4.40;;;4.00;;
545;SDS011;259;53.304;9.816;2022-09-29T14:43:12;4.80;;;3.97;;
545;SDS011;259;53.304;9.816;2022-09-29T14:45:56;4.70;;;4.30;;
545;SDS011;259;53.304;9.816;2022-09-29T14:52:00;4.50;;;4.10;;
545;SDS011;259;53.304;9.816;2022-09-29T15:00:31;4.03;;;3.20;;
545;SDS011;259;53.304;9.816;2022-09-29T15:03:13;3.97;;;3.30;;
545;SDS011;259;53.304;9.816;2022-09-29T15:05:45;3.17;;;2.97;;
545;SDS011;259;53.304;9.816;2022-09-29T15:08:20;5.60;;;2.80;;
545;SDS011;259;53.304;9.816;2022-09-29T15:10:51;3.00;;;2.63;;
545;SDS011;259;53.304;9.816;2022-09-29T15:13:24;2.50;;;2.40;;
545;SDS011;259;53.304;9.816;2022-09-29T15:15:57;3.43;;;2.60;;
545;SDS011;259;53.304;9.816;2022-09-29T15:21:11;4.20;;;3.33;;
545;SDS011;259;53.304;9.816;2022-09-29T15:23:49;3.33;;;3.00;;
545;SDS011;259;53.304;9.816;2022-09-29T15:26:29;5.73;;;4.70;;
545;SDS011;259;53.304;9.816;2022-09-29T15:28:56;3.83;;;3.43;;
545;SDS011;259;53.304;9.816;2022-09-29T15:31:26;4.03;;;3.17;;
545;SDS011;259;53.304;9.816;2022-09-29T15:33:54;6.13;;;3.67;;
545;SDS011;259;53.304;9.816;2022-09-29T15:36:21;9.20;;;4.33;;
545;SDS011;259;53.304;9.816;2022-09-29T15:39:01;7.53;;;4.90;;
545;SDS011;259;53.304;9.816;2022-09-29T15:41:30;7.00;;;5.00;;
545;SDS011;259;53.304;9.816;2022-09-29T15:44:01;5.10;;;4.70;;
545;SDS011;259;53.304;9.816;2022-09-29T15:46:39;5.30;;;4.80;;
545;SDS011;259;53.304;9.816;2022-09-29T15:52:00;5.00;;;4.57;;
545;SDS011;259;53.304;9.816;2022-09-29T15:54:31;4.93;;;4.43;;
545;SDS011;259;53.304;9.816;2022-09-29T15:57:00;8.10;;;5.67;;
545;SDS011;259;53.304;9.816;2022-09-29T15:59:48;6.87;;;5.33;;
545;SDS011;259;53.304;9.816;2022-09-29T16:02:19;7.30;;;6.03;;
545;SDS011;259;53.304;9.816;2022-09-29T16:04:55;6.67;;;6.07;;
545;SDS011;259;53.304;9.816;2022-09-29T16:07:28;10.90;;;6.77;;
545;SDS011;259;53.304;9.816;2022-09-29T16:10:19;7.53;;;6.30;;
545;SDS011;259;53.304;9.816;2022-09-29T16:12:47;9.57;;;6.07;;
545;SDS011;259;53.304;9.816;2022-09-29T16:15:32;9.80;;;5.47;;
545;SDS011;259;53.304;9.816;2022-09-29T16:21:12;13.47;;;5.70;;
545;SDS011;259;53.304;9.816;2022-09-29T16:23:47;8.87;;;5.70;;
545;SDS011;259;53.304;9.816;2022-09-29T16:29:50;16.00;;;6.30;;
545;SDS011;259;53.304;9.816;2022-09-29T16:31:56;9.33;;;4.53;;
545;SDS011;259;53.304;9.816;2022-09-29T16:34:24;11.50;;;5.70;;
545;SDS011;259;53.304;9.816;2022-09-29T16:37:04;12.50;;;5.47;;
545;SDS011;259;53.304;9.816;2022-09-29T16:39:39;19.80;;;6.60;;
545;SDS011;259;53.304;9.816;2022-09-29T16:42:05;25.83;;;6.70;;
545;SDS011;259;53.304;9.816;2022-09-29T16:44:43;18.53;;;5.40;;
545;SDS011;259;53.304;9.816;2022-09-29T16:47:11;10.40;;;5.17;;
545;SDS011;259;53.304;9.816;2022-09-29T16:49:51;12.60;;;6.47;;
545;SDS011;259;53.304;9.816;2022-09-29T16:52:25;11.20;;;5.57;;
545;SDS011;259;53.304;9.816;2022-09-29T16:57:49;8.53;;;4.97;;
545;SDS011;259;53.304;9.816;2022-09-29T17:00:18;11.67;;;5.27;;
545;SDS011;259;53.304;9.816;2022-09-29T17:02:49;15.20;;;5.77;;
545;SDS011;259;53.304;9.816;2022-09-29T17:05:19;14.27;;;5.80;;
545;SDS011;259;53.304;9.816;2022-09-29T17:07:45;11.97;;;5.10;;
545;SDS011;259;53.304;9.816;2022-09-29T17:10:13;8.83;;;5.57;;
545;SDS011;259;53.304;9.816;2022-09-29T17:12:41;10.10;;;5.23;;
545;SDS011;259;53.304;9.816;2022-09-29T17:15:11;7.87;;;4.00;;
545;SDS011;259;53.304;9.816;2022-09-29T17:17:38;7.63;;;4.60;;
545;SDS011;259;53.304;9.816;2022-09-29T17:20:08;5.53;;;4.27;;
545;SDS011;259;53.304;9.816;2022-09-29T17:22:37;10.67;;;4.30;;
545;SDS011;259;53.304;9.816;2022-09-29T17:25:03;6.07;;;3.87;;
545;SDS011;259;53.304;9.816;2022-09-29T17:27:29;12.57;;;4.60;;
545;SDS011;259;53.304;9.816;2022-09-29T17:30:17;6.77;;;3.97;;
545;SDS011;259;53.304;9.816;2022-09-29T17:32:46;7.30;;;3.80;;
545;SDS011;259;53.304;9.816;2022-09-29T17:35:13;8.63;;;4.00;;
545;SDS011;259;53.304;9.816;2022-09-29T17:37:39;4.80;;;3.40;;
545;SDS011;259;53.304;9.816;2022-09-29T17:40:15;4.63;;;3.70;;
545;SDS011;259;53.304;9.816;2022-09-29T17:42:45;7.70;;;4.33;;
545;SDS011;259;53.304;9.816;2022-09-29T17:45:12;5.53;;;4.03;;
545;SDS011;259;53.304;9.816;2022-09-29T17:47:42;5.20;;;3.43;;
545;SDS011;259;53.304;9.816;2022-09-29T17:50:42;5.80;;;3.70;;
545;SDS011;259;53.304;9.816;2022-09-29T17:53:04;4.67;;;3.57;;
545;SDS011;259;53.304;9.816;2022-09-29T17:55:31;7.10;;;4.07;;
545;SDS011;259;53.304;9.816;2022-09-29T17:57:57;11.30;;;3.97;;
545;SDS011;259;53.304;9.816;2022-09-29T18:00:25;5.20;;;3.70;;
545;SDS011;259;53.304;9.816;2022-09-29T18:02:52;6.47;;;3.67;;
545;SDS011;259;53.304;9.816;2022-09-29T18:05:28;4.13;;;3.10;;
545;SDS011;259;53.304;9.816;2022-09-29T18:07:56;4.30;;;3.33;;
545;SDS011;259;53.304;9.816;2022-09-29T18:12:52;3.60;;;3.00;;
545;SDS011;259;53.304;9.816;2022-09-29T18:15:19;3.90;;;3.37;;
545;SDS011;259;53.304;9.816;2022-09-29T18:17:45;5.77;;;3.87;;
545;SDS011;259;53.304;9.816;2022-09-29T18:20:18;4.23;;;3.37;;
545;SDS011;259;53.304;9.816;2022-09-29T18:22:45;4.53;;;3.20;;
545;SDS011;259;53.304;9.816;2022-09-29T18:25:12;4.13;;;3.00;;
545;SDS011;259;53.304;9.816;2022-09-29T18:27:39;4.53;;;3.00;;
545;SDS011;259;53.304;9.816;2022-09-29T18:32:43;5.00;;;2.90;;
545;SDS011;259;53.304;9.816;2022-09-29T18:35:13;4.90;;;3.90;;
545;SDS011;259;53.304;9.816;2022-09-29T18:37:42;5.00;;;3.77;;
545;SDS011;259;53.304;9.816;2022-09-29T18:40:08;4.13;;;3.10;;
545;SDS011;259;53.304;9.816;2022-09-29T18:42:42;4.77;;;2.93;;
545;SDS011;259;53.304;9.816;2022-09-29T18:45:09;4.97;;;2.60;;
545;SDS011;259;53.304;9.816;2022-09-29T18:47:36;2.60;;;2.40;;
545;SDS011;259;53.304;9.816;2022-09-29T18:50:11;4.50;;;2.97;;
545;SDS011;259;53.304;9.816;2022-09-29T18:52:38;6.93;;;2.83;;
545;SDS011;259;53.304;9.816;2022-09-29T18:55:04;3.03;;;2.73;;
545;SDS011;259;53.304;9.816;2022-09-29T18:57:30;3.00;;;2.80;;
545;SDS011;259;53.304;9.816;2022-09-29T18:59:56;5.80;;;3.53;;
545;SDS011;259;53.304;9.816;2022-09-29T19:02:22;3.57;;;3.27;;
545;SDS011;259;53.304;9.816;2022-09-29T19:04:49;3.00;;;2.70;;
545;SDS011;259;53.304;9.816;2022-09-29T19:07:16;2.80;;;2.60;;
545;SDS011;259;53.304;9.816;2022-09-29T19:09:43;2.67;;;2.47;;
545;SDS011;259;53.304;9.816;2022-09-29T19:12:09;3.07;;;2.67;;
545;SDS011;259;53.304;9.816;2022-09-29T19:14:35;3.90;;;3.17;;
545;SDS011;259;53.304;9.816;2022-09-29T19:17:01;3.07;;;2.83;;